Time;durP1;ratioP1;P1;durP2;ratioP2;P2;SDS_P1;SDS_P2;PMS_P1;PMS_P2;Temp;Humidity;BMP_temperature;BMP_pressure;BME280_temperature;BME280_humidity;BME280_pressure;Samples;Min_cycle;Max_cycle;Signal;HPM_P1;HPM_P2
2022/01/29 00:00:00;;;;;;;3.25;1.52;;;;;;;2.47;59.45;101129.16;5072571;28;20105;-70
2022/01/29 00:02:29;;;;;;;2.97;0.85;;;;;;;2.43;59.84;101125.69;5073136;28;20456;-70
2022/01/29 00:04:58;;;;;;;3.40;1.20;;;;;;;2.41;59.95;101135.34;5072787;28;20037;-70
2022/01/29 00:07:26;;;;;;;6.88;1.33;;;;;;;2.36;59.85;101133.69;5072892;28;20045;-70
2022/01/29 00:10:01;;;;;;;2.97;1.08;;;;;;;2.36;60.17;101141.59;5072756;28;20040;-70
2022/01/29 00:12:29;;;;;;;2.28;0.73;;;;;;;2.19;64.59;101147.91;5073003;28;20474;-70
2022/01/29 00:14:58;;;;;;;2.58;1.00;;;;;;;1.99;68.13;101136.75;5072727;28;20047;-70
2022/01/29 00:17:26;;;;;;;2.20;0.98;;;;;;;1.82;70.38;101141.31;5072589;28;20048;-70
2022/01/29 00:19:56;;;;;;;2.55;0.90;;;;;;;1.73;72.04;101148.41;5072332;28;20044;-71
2022/01/29 00:22:24;;;;;;;3.28;1.17;;;;;;;1.63;73.75;101157.25;5072867;28;20051;-69
2022/01/29 00:24:56;;;;;;;2.22;0.63;;;;;;;1.54;74.91;101161.72;5072611;28;20405;-70
2022/01/29 00:27:28;;;;;;;2.97;1.15;;;;;;;1.55;74.27;101163.50;5072834;28;20123;-70
2022/01/29 00:29:58;;;;;;;0.85;0.63;;;;;;;1.48;75.25;101165.31;5072635;28;20489;-70
2022/01/29 00:32:27;;;;;;;4.72;1.20;;;;;;;1.46;73.42;101169.72;5072346;28;20044;-70
2022/01/29 00:34:57;;;;;;;3.33;1.10;;;;;;;1.45;73.69;101170.59;5072810;28;20478;-70
2022/01/29 00:37:25;;;;;;;2.92;1.13;;;;;;;1.44;73.10;101171.47;5072630;28;20101;-70
2022/01/29 00:39:53;;;;;;;4.60;1.27;;;;;;;1.45;73.15;101178.50;5072353;28;20397;-71
2022/01/29 00:42:23;;;;;;;3.20;0.90;;;;;;;1.47;72.04;101168.81;5072309;28;20055;-70
2022/01/29 00:44:52;;;;;;;5.82;1.27;;;;;;;1.42;72.59;101176.72;5075092;28;20110;-70
2022/01/29 00:47:20;;;;;;;2.65;1.15;;;;;;;1.48;72.57;101170.56;5076378;28;20499;-70
2022/01/29 00:49:48;;;;;;;3.50;1.00;;;;;;;1.36;73.22;101162.78;5076067;28;20045;-70
2022/01/29 00:52:18;;;;;;;2.05;0.88;;;;;;;1.35;74.33;101182.94;5076304;28;20429;-69
2022/01/29 00:54:47;;;;;;;3.35;1.20;;;;;;;1.35;76.11;101175.06;5076245;28;20044;-69
2022/01/29 00:57:15;;;;;;;3.08;1.30;;;;;;;1.35;76.78;101176.78;5075639;28;20079;-70
2022/01/29 00:59:43;;;;;;;2.85;1.30;;;;;;;1.31;78.21;101185.59;5076187;28;20040;-69
2022/01/29 01:02:13;;;;;;;4.15;1.20;;;;;;;1.26;79.35;101172.50;5075899;28;20044;-70
2022/01/29 01:04:41;;;;;;;3.22;1.40;;;;;;;1.22;79.66;101175.16;5075776;28;20097;-70
2022/01/29 01:07:11;;;;;;;3.30;1.20;;;;;;;1.23;80.05;101176.88;5075812;28;20047;-70
2022/01/29 01:09:40;;;;;;;6.57;1.80;;;;;;;1.25;79.97;101188.25;5075915;28;20445;-70
2022/01/29 01:12:10;;;;;;;3.60;1.27;;;;;;;1.12;81.03;101177.84;5075713;28;20064;-70
2022/01/29 01:14:38;;;;;;;3.15;1.15;;;;;;;1.14;82.23;101183.06;5075832;28;20047;-70
2022/01/29 01:17:06;;;;;;;4.88;1.60;;;;;;;1.11;82.98;101191.00;5075710;28;20041;-70
2022/01/29 01:19:35;;;;;;;7.30;1.70;;;;;;;1.10;84.62;101210.28;5074713;28;20067;-70
2022/01/29 01:22:04;;;;;;;4.00;1.30;;;;;;;1.07;86.89;101208.53;5075545;28;20389;-71
2022/01/29 01:24:32;;;;;;;5.88;1.50;;;;;;;1.01;89.63;101192.81;5075723;28;20461;-70
2022/01/29 01:27:02;;;;;;;3.83;1.40;;;;;;;0.96;91.20;101210.34;5075454;28;20047;-70
2022/01/29 01:29:31;;;;;;;4.82;1.63;;;;;;;0.94;92.65;101184.97;5075357;28;20547;-70
2022/01/29 01:31:59;;;;;;;4.07;1.73;;;;;;;0.93;91.24;101199.84;5073767;28;20052;-71
2022/01/29 01:34:32;;;;;;;5.70;1.48;;;;;;;0.92;91.45;101184.09;5075682;28;20056;-69
2022/01/29 01:37:05;;;;;;;3.88;1.52;;;;;;;0.89;91.09;101176.25;5075323;28;20143;-70
2022/01/29 01:39:36;;;;;;;5.20;1.48;;;;;;;0.96;88.90;101196.31;5075474;28;20040;-69
2022/01/29 01:42:07;;;;;;;3.72;1.60;;;;;;;0.94;88.45;101185.84;5075231;28;20067;-70
2022/01/29 01:44:38;;;;;;;6.47;1.80;;;;;;;0.90;89.11;101194.63;5075387;28;20393;-70
2022/01/29 01:47:07;;;;;;;3.80;1.60;;;;;;;0.88;88.83;101185.88;5075190;28;20419;-70
2022/01/29 01:49:38;;;;;;;2.40;1.20;;;;;;;0.91;88.69;101201.63;5074880;28;20047;-70
2022/01/29 01:52:10;;;;;;;4.63;1.30;;;;;;;0.87;89.96;101197.28;5074103;28;20056;-70
2022/01/29 01:54:39;;;;;;;3.17;0.90;;;;;;;0.83;90.93;101192.91;5075045;28;20044;-70
2022/01/29 01:57:09;;;;;;;4.68;1.60;;;;;;;0.78;92.05;101194.69;5074413;28;20036;-69
2022/01/29 01:59:38;;;;;;;6.57;1.70;;;;;;;0.78;92.10;101203.44;5074768;28;20044;-69
2022/01/29 02:02:06;;;;;;;2.80;1.45;;;;;;;0.75;93.08;101190.31;5074708;28;20458;-70
2022/01/29 02:04:35;;;;;;;3.80;1.60;;;;;;;0.75;93.02;101202.56;5075049;28;20091;-70
2022/01/29 02:07:05;;;;;;;2.95;1.63;;;;;;;0.72;93.43;101208.72;5074751;28;20051;-70
2022/01/29 02:09:34;;;;;;;3.55;1.38;;;;;;;0.75;92.06;101203.44;5074795;28;20106;-70
2022/01/29 02:12:03;;;;;;;4.88;1.38;;;;;;;0.70;91.37;101207.00;5074610;28;20127;-70
2022/01/29 02:14:34;;;;;;;5.78;1.60;;;;;;;0.70;90.87;101213.13;5074503;28;20147;-69
2022/01/29 02:17:04;;;;;;;4.55;1.80;;;;;;;0.78;88.00;101218.34;5074617;28;20044;-71
2022/01/29 02:19:34;;;;;;;4.45;1.60;;;;;;;0.84;86.72;101216.53;5075962;28;20044;-71
2022/01/29 02:22:05;;;;;;;5.20;1.83;;;;;;;0.82;85.29;101212.19;5074171;28;20075;-71
2022/01/29 02:24:34;;;;;;;5.50;1.50;;;;;;;0.85;83.72;101222.66;5074687;28;20041;-70
2022/01/29 02:27:05;;;;;;;5.78;1.90;;;;;;;0.88;81.30;101219.16;5074262;28;20430;-71
2022/01/29 02:29:34;;;;;;;6.38;1.80;;;;;;;0.90;80.42;101215.63;5074332;28;20041;-70
2022/01/29 02:32:04;;;;;;;2.95;1.45;;;;;;;1.03;77.88;101225.19;5075834;28;20440;-70
2022/01/29 02:34:33;;;;;;;4.35;1.38;;;;;;;1.11;76.64;101222.53;5074595;28;20080;-70
2022/01/29 02:37:01;;;;;;;4.65;1.27;;;;;;;1.12;75.93;101216.38;5074084;28;20048;-73
2022/01/29 02:39:31;;;;;;;2.83;1.10;;;;;;;1.19;74.38;101204.97;5074119;28;20405;-69
2022/01/29 02:41:59;;;;;;;5.10;1.67;;;;;;;1.14;75.10;101211.97;5073897;28;20040;-70
2022/01/29 02:44:30;;;;;;;4.68;1.50;;;;;;;1.24;73.58;101210.16;5076451;28;20036;-69
2022/01/29 02:47:14;;;;;;;3.10;1.30;;;;;;;1.21;73.71;101216.31;5073829;28;20057;-70
2022/01/29 02:49:42;;;;;;;2.85;1.05;;;;;;;1.27;72.97;101212.78;5076565;28;20079;-70
2022/01/29 02:52:10;;;;;;;4.38;1.42;;;;;;;1.27;72.83;101215.44;5073499;28;20504;-70
2022/01/29 02:54:40;;;;;;;6.85;1.40;;;;;;;1.23;73.00;101226.81;5073973;28;20390;-70
2022/01/29 02:57:08;;;;;;;8.55;1.80;;;;;;;1.23;72.53;101214.56;5073741;28;20064;-70
2022/01/29 02:59:37;;;;;;;4.35;1.67;;;;;;;1.23;72.94;101213.69;5073963;28;20041;-70
2022/01/29 03:02:05;;;;;;;3.47;1.33;;;;;;;1.26;71.99;101218.94;5073708;28;20041;-70
2022/01/29 03:04:34;;;;;;;6.82;1.67;;;;;;;1.30;71.51;101218.03;5073725;28;20045;-70
2022/01/29 03:07:02;;;;;;;5.53;1.27;;;;;;;1.32;71.35;101235.53;5073586;28;20072;-83
2022/01/29 03:09:31;;;;;;;3.90;1.08;;;;;;;1.37;71.39;101228.50;5073700;28;20036;-70
2022/01/29 03:12:02;;;;;;;4.28;1.20;;;;;;;1.40;71.29;101238.09;5073337;28;20048;-69
2022/01/29 03:14:30;;;;;;;3.53;1.35;;;;;;;1.35;71.70;101227.63;5073789;28;20536;-68
2022/01/29 03:16:58;;;;;;;5.93;1.50;;;;;;;1.32;71.43;101235.53;5073570;28;20401;-70
2022/01/29 03:19:26;;;;;;;3.28;0.82;;;;;;;1.36;71.45;101252.16;5072963;28;20043;-69
2022/01/29 03:21:55;;;;;;;5.88;1.58;;;;;;;1.36;71.36;101262.69;5073731;28;20409;-69
2022/01/29 03:24:24;;;;;;;4.55;1.17;;;;;;;1.31;71.67;101235.53;5073213;28;20033;-69
2022/01/29 03:26:52;;;;;;;3.85;1.30;;;;;;;1.32;71.22;101255.69;5073435;28;20450;-69
2022/01/29 03:29:22;;;;;;;5.32;1.35;;;;;;;1.29;71.82;101242.56;5072752;28;20040;-70
2022/01/29 03:31:50;;;;;;;3.95;1.20;;;;;;;1.21;72.22;101236.47;5071855;28;20553;-70
2022/01/29 03:34:19;;;;;;;4.80;1.50;;;;;;;1.20;72.43;101242.63;5073239;28;20048;-70
2022/01/29 03:36:48;;;;;;;4.13;1.60;;;;;;;1.19;72.54;101248.75;5073253;28;20049;-69
2022/01/29 03:39:16;;;;;;;2.03;1.10;;;;;;;1.18;72.02;101253.16;5072970;28;20048;-70
2022/01/29 03:41:45;;;;;;;6.55;1.67;;;;;;;1.16;72.25;101270.69;5073331;28;20044;-70
2022/01/29 03:44:14;;;;;;;2.45;1.30;;;;;;;1.17;72.30;101269.81;5072719;28;20505;-70
2022/01/29 03:46:43;;;;;;;3.58;1.17;;;;;;;1.11;72.41;101257.56;5073189;28;20094;-69
2022/01/29 03:49:12;;;;;;;4.82;1.40;;;;;;;1.10;72.66;101254.94;5072564;28;20072;-70
2022/01/29 03:51:40;;;;;;;5.63;1.85;;;;;;;0.94;73.56;101259.38;5072073;28;20044;-70
2022/01/29 03:54:10;;;;;;;3.50;1.30;;;;;;;0.99;73.17;101272.53;5072962;28;20053;-70
2022/01/29 03:56:39;;;;;;;4.20;1.30;;;;;;;1.08;72.06;101265.47;5073181;28;20397;-70
2022/01/29 03:59:07;;;;;;;6.78;1.70;;;;;;;1.00;72.53;101269.88;5072897;28;20048;-71
2022/01/29 04:01:35;;;;;;;4.50;1.50;;;;;;;1.04;71.92;101271.59;5073102;28;20094;-70
2022/01/29 04:04:05;;;;;;;5.30;1.65;;;;;;;1.03;71.35;101283.00;5072747;28;20079;-70
2022/01/29 04:06:34;;;;;;;4.32;1.40;;;;;;;1.11;69.89;101273.31;5073280;28;20114;-70
2022/01/29 04:09:05;;;;;;;4.45;1.40;;;;;;;1.07;70.00;101283.88;5072745;28;20044;-70
2022/01/29 04:11:37;;;;;;;5.88;1.58;;;;;;;1.19;69.31;101281.16;5073182;28;20090;-70
2022/01/29 04:14:13;;;;;;;3.75;1.27;;;;;;;1.19;69.12;101275.03;5072783;28;20052;-70
2022/01/29 04:16:41;;;;;;;3.05;1.00;;;;;;;1.14;68.97;101275.91;5071411;28;20052;-70
2022/01/29 04:19:11;;;;;;;3.95;1.42;;;;;;;1.22;68.11;101269.75;5074364;28;20049;-70
2022/01/29 04:21:41;;;;;;;4.97;1.33;;;;;;;1.29;67.81;101271.47;5076870;28;20040;-70
2022/01/29 04:24:09;;;;;;;2.83;1.52;;;;;;;1.28;68.08;101275.00;5076447;28;20461;-71
2022/01/29 04:26:37;;;;;;;4.45;1.30;;;;;;;1.28;67.65;101264.47;5076952;28;20399;-70
2022/01/29 04:29:08;;;;;;;3.42;1.20;;;;;;;1.29;67.71;101260.97;5076794;28;20044;-70
2022/01/29 04:31:43;;;;;;;3.72;1.40;;;;;;;1.30;66.92;101252.19;5076527;28;20408;-69
2022/01/29 04:34:13;;;;;;;3.85;1.30;;;;;;;1.26;67.19;101255.75;5076192;28;20106;-70
2022/01/29 04:36:41;;;;;;;5.15;1.30;;;;;;;1.22;67.21;101260.13;5076599;28;20450;-70
2022/01/29 04:39:09;;;;;;;3.63;1.20;;;;;;;1.31;66.76;101261.81;5076114;28;20067;-72
2022/01/29 04:41:37;;;;;;;6.15;1.58;;;;;;;1.27;67.15;101257.47;5076585;28;20041;-70
2022/01/29 04:44:06;;;;;;;4.03;1.25;;;;;;;1.27;66.75;101258.34;5076134;28;20083;-68
2022/01/29 04:46:35;;;;;;;3.60;1.23;;;;;;;1.31;66.40;101259.19;5074818;28;20056;-69
2022/01/29 04:49:03;;;;;;;5.15;1.15;;;;;;;1.25;66.65;101244.31;5076418;28;20044;-69
2022/01/29 04:51:35;;;;;;;5.30;1.60;;;;;;;1.28;66.20;101264.47;5076522;28;20068;-70
2022/01/29 04:54:04;;;;;;;5.03;1.60;;;;;;;1.29;66.33;101266.22;5076422;28;20036;-70
2022/01/29 04:56:34;;;;;;;4.53;1.48;;;;;;;1.23;66.93;101271.50;5075777;28;20044;-70
2022/01/29 04:59:02;;;;;;;2.45;1.10;;;;;;;1.30;66.09;101278.47;5076197;28;20052;-69
2022/01/29 05:01:31;;;;;;;5.22;1.45;;;;;;;1.28;65.90;101272.38;5075693;28;20044;-71
2022/01/29 05:03:59;;;;;;;4.97;1.58;;;;;;;1.33;65.88;101279.31;5075799;28;20444;-70
2022/01/29 05:06:28;;;;;;;5.68;1.75;;;;;;;1.28;65.60;101286.38;5075593;28;20047;-70
2022/01/29 05:08:57;;;;;;;3.42;1.58;;;;;;;1.36;65.47;101287.22;5076032;28;20041;-71
2022/01/29 05:11:25;;;;;;;8.00;1.67;;;;;;;1.39;64.79;101294.19;5075681;28;20041;-70
2022/01/29 05:13:54;;;;;;;2.85;1.50;;;;;;;1.41;64.71;101292.44;5075903;28;20047;-70
2022/01/29 05:27:36;;;;;;;3.43;1.40;;;;;;;1.38;64.34;101302.97;5037187;28;20049;-70
2022/01/29 05:30:05;;;;;;;4.88;1.45;;;;;;;1.30;64.68;101312.66;5074463;28;20041;-70
2022/01/29 05:32:34;;;;;;;5.05;1.60;;;;;;;1.35;64.29;101308.22;5074781;28;20072;-70
2022/01/29 05:35:02;;;;;;;4.38;1.38;;;;;;;1.12;65.37;101309.22;5075336;28;20401;-70
2022/01/29 05:37:41;;;;;;;3.47;1.38;;;;;;;0.99;66.22;101323.31;5075686;28;20040;-70
2022/01/29 05:40:12;;;;;;;6.05;1.83;;;;;;;1.18;65.47;101320.59;5075435;28;20044;-70
2022/01/29 05:42:41;;;;;;;6.40;1.88;;;;;;;1.06;66.40;101326.75;5075717;28;20074;-70
2022/01/29 05:45:09;;;;;;;3.90;1.60;;;;;;;1.08;65.63;101328.53;5075035;28;20485;-70
2022/01/29 05:47:40;;;;;;;4.45;1.50;;;;;;;0.99;65.81;101325.06;5075187;28;20124;-70
2022/01/29 05:50:10;;;;;;;5.97;1.85;;;;;;;0.94;65.60;101325.06;5075314;28;20445;-70
2022/01/29 05:52:38;;;;;;;6.47;1.83;;;;;;;1.02;65.44;101330.31;5075511;28;20048;-70
2022/01/29 05:55:08;;;;;;;8.80;1.85;;;;;;;0.86;66.80;101332.09;5075309;28;20474;-70
2022/01/29 05:57:37;;;;;;;4.10;1.50;;;;;;;1.01;65.69;101329.44;5074978;28;20098;-71
2022/01/29 06:00:07;;;;;;;8.15;2.10;;;;;;;1.03;65.51;101329.41;5075139;28;20052;-70
2022/01/29 06:02:35;;;;;;;4.55;1.83;;;;;;;1.25;64.64;101327.56;5073459;28;20052;-70
2022/01/29 06:05:04;;;;;;;4.90;1.63;;;;;;;1.12;65.08;101332.00;5074780;28;20054;-69
2022/01/29 06:07:32;;;;;;;3.15;1.33;;;;;;;0.91;66.77;101338.22;5074793;28;20123;-70
2022/01/29 06:10:03;;;;;;;3.95;1.20;;;;;;;0.75;67.33;101341.75;5074924;28;20481;-70
2022/01/29 06:12:39;;;;;;;5.72;1.52;;;;;;;0.59;68.64;101345.31;5074694;28;20045;-71
2022/01/29 06:15:08;;;;;;;4.72;1.50;;;;;;;0.41;69.50;101340.97;5074803;28;20402;-70
2022/01/29 06:17:38;;;;;;;4.00;1.52;;;;;;;0.35;70.35;101344.47;5074589;28;20048;-71
2022/01/29 06:20:07;;;;;;;4.65;1.65;;;;;;;0.45;69.18;101343.56;5074723;28;20044;-71
2022/01/29 06:22:35;;;;;;;5.10;1.70;;;;;;;0.43;69.47;101333.97;5074501;28;20127;-70
2022/01/29 06:25:04;;;;;;;9.73;1.92;;;;;;;0.34;69.79;101342.72;5074549;28;20093;-70
2022/01/29 06:27:33;;;;;;;5.43;1.70;;;;;;;0.41;70.17;101346.22;5073204;28;20488;-71
2022/01/29 06:30:03;;;;;;;5.53;1.90;;;;;;;0.74;68.15;101347.91;5074748;28;20054;-70
2022/01/29 06:32:32;;;;;;;4.80;1.50;;;;;;;0.85;67.50;101343.47;5072653;28;20052;-70
2022/01/29 06:35:00;;;;;;;4.35;1.83;;;;;;;0.81;67.58;101347.00;5074107;28;20052;-70
2022/01/29 06:37:29;;;;;;;6.88;1.75;;;;;;;0.78;67.96;101352.28;5074139;28;20048;-70
2022/01/29 06:39:59;;;;;;;5.72;1.75;;;;;;;0.89;66.85;101352.25;5074363;28;20098;-70
2022/01/29 06:42:28;;;;;;;5.47;1.80;;;;;;;0.97;67.02;101347.84;5073863;28;20052;-70
2022/01/29 06:44:56;;;;;;;6.18;1.70;;;;;;;1.07;65.96;101345.19;5074325;28;20044;-70
2022/01/29 06:47:26;;;;;;;5.95;1.70;;;;;;;1.16;65.61;101344.28;5073550;28;20044;-70
2022/01/29 06:49:54;;;;;;;7.68;1.90;;;;;;;1.29;65.28;101332.81;5074118;28;20048;-70
2022/01/29 06:52:23;;;;;;;6.30;1.92;;;;;;;1.61;63.24;101337.00;5073816;28;20041;-71
2022/01/29 06:54:54;;;;;;;4.93;1.80;;;;;;;1.90;61.79;101339.44;5074248;28;20053;-70
2022/01/29 06:57:22;;;;;;;3.97;1.55;;;;;;;1.94;61.38;101328.03;5073658;28;20037;-69
2022/01/29 06:59:50;;;;;;;4.47;1.55;;;;;;;1.89;61.30;101332.44;5074030;28;20036;-70
2022/01/29 07:02:18;;;;;;;5.80;1.85;;;;;;;1.93;61.45;101328.88;5073929;28;20068;-70
2022/01/29 07:04:48;;;;;;;8.65;1.77;;;;;;;1.97;60.99;101328.00;5072336;28;20059;-71
2022/01/29 07:07:16;;;;;;;5.50;1.70;;;;;;;1.99;60.78;101331.47;5073737;28;20048;-70
2022/01/29 07:09:45;;;;;;;5.07;1.85;;;;;;;2.01;60.77;101329.69;5073556;28;20047;-69
2022/01/29 07:12:16;;;;;;;4.55;1.70;;;;;;;1.93;61.78;101339.41;5073752;28;20036;-70
2022/01/29 07:14:49;;;;;;;3.08;1.63;;;;;;;1.99;60.60;101339.38;5073720;28;20132;-70
2022/01/29 07:17:18;;;;;;;5.65;1.95;;;;;;;1.98;61.39;101338.50;5073440;28;20045;-70
2022/01/29 07:19:48;;;;;;;4.28;1.70;;;;;;;1.97;61.40;101347.28;5073633;28;20440;-70
2022/01/29 07:22:16;;;;;;;4.53;1.73;;;;;;;2.03;61.59;101346.38;5073558;28;20032;-70
2022/01/29 07:24:46;;;;;;;4.60;1.80;;;;;;;2.06;61.14;101346.34;5072831;28;20126;-69
2022/01/29 07:27:15;;;;;;;5.20;1.60;;;;;;;2.00;60.88;101341.13;5075120;28;20072;-70
2022/01/29 07:29:44;;;;;;;6.55;1.90;;;;;;;1.91;61.77;101344.69;5073187;28;20041;-70
2022/01/29 07:32:13;;;;;;;6.88;1.90;;;;;;;1.91;61.07;101346.44;5073170;28;20454;-70
2022/01/29 07:34:41;;;;;;;5.18;1.63;;;;;;;2.03;60.54;101349.00;5073341;28;20102;-70
2022/01/29 07:37:10;;;;;;;5.07;1.98;;;;;;;1.94;61.22;101351.72;5073438;28;20044;-70
2022/01/29 07:39:39;;;;;;;5.43;1.55;;;;;;;2.08;59.36;101349.81;5073228;28;20075;-70
2022/01/29 07:42:08;;;;;;;5.55;1.60;;;;;;;2.06;59.70;101354.22;5073387;28;20094;-70
2022/01/29 07:44:36;;;;;;;3.60;1.48;;;;;;;1.95;60.05;101354.31;5073242;28;20458;-70
2022/01/29 07:47:05;;;;;;;5.85;2.10;;;;;;;2.06;59.10;101356.88;5072984;28;20119;-71
2022/01/29 07:49:33;;;;;;;5.20;1.60;;;;;;;2.22;58.62;101353.22;5072721;28;20048;-71
2022/01/29 07:52:04;;;;;;;5.72;1.77;;;;;;;2.40;57.35;101359.19;5074465;28;20052;-71
2022/01/29 07:54:34;;;;;;;5.70;2.42;;;;;;;2.38;56.70;101353.09;5072308;28;20044;-70
2022/01/29 07:57:03;;;;;;;7.57;1.70;;;;;;;2.50;55.74;101356.47;5073292;28;20481;-70
2022/01/29 07:59:32;;;;;;;4.57;1.35;;;;;;;2.52;55.43;101364.38;5073001;28;20094;-71
2022/01/29 08:02:00;;;;;;;4.30;1.77;;;;;;;2.59;55.86;101347.59;5073257;28;20363;-70
2022/01/29 08:04:28;;;;;;;8.35;2.05;;;;;;;2.72;56.87;101349.25;5072902;28;20118;-71
2022/01/29 08:06:56;;;;;;;5.13;1.83;;;;;;;2.79;57.00;101348.25;5072954;28;20044;-70
2022/01/29 08:09:24;;;;;;;8.38;2.10;;;;;;;2.77;58.49;101359.72;5073037;28;20512;-70
2022/01/29 08:11:55;;;;;;;5.95;1.38;;;;;;;2.81;58.09;101364.97;5072772;28;20075;-70
2022/01/29 08:14:23;;;;;;;7.53;2.17;;;;;;;2.87;58.30;101362.25;5072765;28;20056;-70
2022/01/29 08:16:51;;;;;;;5.30;1.88;;;;;;;2.83;58.77;101359.66;5073261;28;20452;-70
2022/01/29 08:19:20;;;;;;;8.10;2.17;;;;;;;2.88;58.68;101355.19;5073054;28;20119;-70
2022/01/29 08:21:48;;;;;;;6.70;2.35;;;;;;;2.85;59.81;101355.25;5072588;28;20135;-70
2022/01/29 08:24:16;;;;;;;5.82;2.03;;;;;;;2.95;59.72;101354.25;5073002;28;20075;-70
2022/01/29 08:26:45;;;;;;;7.20;2.00;;;;;;;2.91;59.07;101349.03;5072715;28;20072;-71
2022/01/29 08:29:15;;;;;;;5.70;2.15;;;;;;;2.90;58.20;101355.22;5072958;28;20052;-70
2022/01/29 08:31:43;;;;;;;5.50;1.77;;;;;;;2.87;58.21;101354.34;5072454;28;20041;-69
2022/01/29 08:34:12;;;;;;;8.18;2.00;;;;;;;2.81;58.99;101354.41;5072252;28;20061;-70
2022/01/29 08:36:41;;;;;;;11.00;2.38;;;;;;;2.79;58.69;101356.16;5072620;28;20098;-69
2022/01/29 08:39:11;;;;;;;6.78;2.20;;;;;;;2.79;59.39;101355.31;5072772;28;20051;-70
2022/01/29 08:41:39;;;;;;;7.00;2.08;;;;;;;2.85;60.21;101356.13;5072391;28;20033;-71
2022/01/29 08:44:08;;;;;;;7.65;2.33;;;;;;;2.83;60.45;101357.91;5072768;28;20068;-70
2022/01/29 08:46:40;;;;;;;6.93;2.38;;;;;;;2.90;59.49;101356.09;5072583;28;20044;-70
2022/01/29 08:49:09;;;;;;;7.13;2.35;;;;;;;2.83;59.12;101357.91;5072551;28;20047;-70
2022/01/29 08:51:37;;;;;;;7.47;1.92;;;;;;;2.80;58.99;101350.03;5072065;28;20044;-70
2022/01/29 08:54:06;;;;;;;5.47;2.00;;;;;;;2.79;59.69;101364.06;5072307;28;20406;-70
2022/01/29 08:56:34;;;;;;;7.20;2.17;;;;;;;2.77;59.49;101367.63;5072389;28;20048;-70
2022/01/29 08:59:03;;;;;;;5.63;1.98;;;;;;;2.79;59.51;101365.84;5072350;28;20454;-70
2022/01/29 09:01:32;;;;;;;8.45;2.33;;;;;;;2.76;59.17;101366.75;5072189;28;20147;-71
2022/01/29 09:04:02;;;;;;;6.22;2.08;;;;;;;2.75;58.52;101370.28;5072574;28;20036;-70
2022/01/29 09:06:30;;;;;;;6.28;2.00;;;;;;;2.78;58.30;101379.91;5075939;28;20478;-80
2022/01/29 09:08:59;;;;;;;6.25;2.20;;;;;;;2.71;58.63;101378.25;5076219;28;20083;-69
2022/01/29 09:11:27;;;;;;;7.65;2.42;;;;;;;2.80;58.72;101375.53;5076502;28;20040;-70
2022/01/29 09:13:55;;;;;;;6.88;2.10;;;;;;;2.83;57.78;101389.53;5075896;28;20093;-70
2022/01/29 09:16:23;;;;;;;6.60;2.47;;;;;;;2.87;57.35;101400.91;5075725;28;20048;-70
2022/01/29 09:18:51;;;;;;;5.03;2.00;;;;;;;2.87;57.48;101383.31;5075804;28;20051;-71
2022/01/29 09:21:23;;;;;;;6.68;2.20;;;;;;;3.00;57.63;101386.72;5076045;28;20406;-70
2022/01/29 09:23:55;;;;;;;4.93;2.20;;;;;;;3.05;57.67;101391.91;5075407;28;20118;-71
2022/01/29 09:26:24;;;;;;;6.43;2.30;;;;;;;3.17;57.35;101378.59;5075587;28;20047;-71
2022/01/29 09:28:55;;;;;;;8.48;2.15;;;;;;;3.18;56.87;101369.78;5075608;28;20075;-71
2022/01/29 09:31:23;;;;;;;7.10;2.38;;;;;;;3.25;56.06;101358.28;5075407;28;20037;-71
2022/01/29 09:33:51;;;;;;;6.82;2.38;;;;;;;3.32;56.06;101356.44;5075305;28;20060;-70
2022/01/29 09:36:21;;;;;;;5.90;2.10;;;;;;;3.48;56.22;101346.56;5074342;28;20049;-71
2022/01/29 09:38:51;;;;;;;4.60;1.80;;;;;;;3.36;56.45;101348.47;5075282;28;20044;-69
2022/01/29 09:41:22;;;;;;;12.65;2.63;;;;;;;3.44;56.70;101345.72;5075184;28;20123;-70
2022/01/29 09:43:52;;;;;;;6.47;2.25;;;;;;;3.52;55.76;101343.88;5075427;28;20102;-70
2022/01/29 09:46:20;;;;;;;10.77;2.58;;;;;;;3.56;56.21;101339.41;5075635;28;20540;-71
2022/01/29 09:48:55;;;;;;;5.00;2.10;;;;;;;3.63;56.27;101341.06;5075333;28;20044;-69
2022/01/29 09:51:23;;;;;;;8.15;2.70;;;;;;;3.67;56.90;101342.78;5075391;28;20040;-70
2022/01/29 09:53:54;;;;;;;6.28;1.77;;;;;;;3.56;56.99;101328.84;5075058;28;20040;-71
2022/01/29 09:56:22;;;;;;;8.10;2.60;;;;;;;3.79;56.66;101333.81;5075149;28;20094;-70
2022/01/29 09:58:51;;;;;;;6.70;2.83;;;;;;;3.76;56.64;101331.19;5074990;28;20090;-71
2022/01/29 10:01:19;;;;;;;7.88;2.40;;;;;;;3.79;56.40;101310.94;5074761;28;20101;-71
2022/01/29 10:04:00;;;;;;;9.20;2.53;;;;;;;3.90;56.22;101306.34;5074723;28;20146;-71
2022/01/29 10:06:29;;;;;;;7.88;2.75;;;;;;;4.11;55.70;101296.34;5075279;28;20044;-70
2022/01/29 10:09:01;;;;;;;9.48;2.40;;;;;;;4.30;54.70;101305.69;5075200;28;20477;-71
2022/01/29 10:11:30;;;;;;;7.10;1.80;;;;;;;4.43;53.62;101303.69;5074205;28;20053;-71
2022/01/29 10:14:00;;;;;;;6.47;2.17;;;;;;;4.44;53.56;101294.84;5074705;28;20114;-70
2022/01/29 10:16:31;;;;;;;6.55;2.08;;;;;;;4.60;52.82;101297.19;5074392;28;20120;-70
2022/01/29 10:19:01;;;;;;;8.40;2.33;;;;;;;4.50;53.07;101290.34;5074447;28;20123;-70
2022/01/29 10:21:32;;;;;;;5.68;1.63;;;;;;;4.44;53.75;101285.19;5074906;28;20051;-70
2022/01/29 10:24:06;;;;;;;9.73;2.17;;;;;;;4.45;53.96;101284.28;5074613;28;20059;-70
2022/01/29 10:26:36;;;;;;;6.50;2.13;;;;;;;4.44;54.81;101286.91;5074577;28;20102;-70
2022/01/29 10:29:07;;;;;;;6.38;2.10;;;;;;;4.26;55.29;101290.78;5074945;28;20048;-69
2022/01/29 10:31:42;;;;;;;9.32;3.13;;;;;;;4.43;55.08;101290.47;5074509;28;20485;-70
2022/01/29 10:34:19;;;;;;;6.72;2.45;;;;;;;4.41;55.11;101293.13;5074774;28;20422;-69
2022/01/29 10:37:15;;;;;;;8.95;3.30;;;;;;;4.42;55.69;101296.66;5074324;28;20049;-70
2022/01/29 10:39:46;;;;;;;11.48;2.85;;;;;;;4.48;56.34;101286.84;5073949;28;20047;-71
2022/01/29 10:42:17;;;;;;;8.65;2.65;;;;;;;4.42;56.86;101289.59;5074529;28;20072;-70
2022/01/29 10:44:47;;;;;;;9.98;2.60;;;;;;;4.51;57.12;101280.63;5073060;28;20074;-71
2022/01/29 10:47:15;;;;;;;6.75;2.50;;;;;;;4.50;57.95;101279.75;5074234;28;20063;-70
2022/01/29 10:49:52;;;;;;;11.07;3.10;;;;;;;4.45;58.54;101281.63;5074013;28;20493;-71
2022/01/29 10:52:27;;;;;;;8.60;2.92;;;;;;;4.47;58.78;101274.53;5074270;28;20445;-70
2022/01/29 10:55:02;;;;;;;12.20;3.35;;;;;;;4.60;58.29;101280.47;5073553;28;20052;-70
2022/01/29 10:57:32;;;;;;;8.30;2.70;;;;;;;4.57;58.83;101278.75;5073899;28;20040;-70
2022/01/29 11:00:03;;;;;;;9.63;3.22;;;;;;;4.74;58.79;101277.56;5073495;28;20044;-71
2022/01/29 11:02:32;;;;;;;11.15;3.20;;;;;;;4.87;58.30;101264.06;5074235;28;20045;-70
2022/01/29 11:05:04;;;;;;;10.65;3.22;;;;;;;4.89;58.73;101250.78;5073665;28;20501;-70
2022/01/29 11:07:33;;;;;;;9.00;3.00;;;;;;;4.80;59.43;101251.84;5073968;28;20124;-70
2022/01/29 11:10:05;;;;;;;9.68;2.95;;;;;;;4.91;59.45;101254.28;5073211;28;20090;-70
2022/01/29 11:12:42;;;;;;;9.35;2.38;;;;;;;4.84;60.05;101250.91;5073844;28;20051;-70
2022/01/29 11:15:11;;;;;;;12.07;3.28;;;;;;;4.80;60.37;101251.00;5073714;28;20403;-69
2022/01/29 11:17:40;;;;;;;9.98;3.05;;;;;;;4.80;60.96;101241.28;5073697;28;20043;-70
2022/01/29 11:20:10;;;;;;;12.30;3.30;;;;;;;4.87;61.27;101242.03;5073387;28;20461;-69
2022/01/29 11:22:41;;;;;;;10.20;3.47;;;;;;;4.94;61.17;101238.38;5073768;28;20060;-69
2022/01/29 11:25:18;;;;;;;13.43;3.27;;;;;;;4.84;61.33;101248.25;5073754;28;20087;-70
2022/01/29 11:27:46;;;;;;;10.02;3.38;;;;;;;4.83;61.53;101235.09;5072796;28;20056;-70
2022/01/29 11:30:16;;;;;;;12.98;3.67;;;;;;;4.94;61.39;101227.78;5073249;28;20119;-70
2022/01/29 11:32:45;;;;;;;8.98;3.33;;;;;;;4.99;61.46;101220.63;5073403;28;20041;-84
2022/01/29 11:35:21;;;;;;;15.57;3.00;;;;;;;5.03;61.57;101224.09;5073446;28;20051;-71
2022/01/29 11:38:11;;;;;;;10.40;3.40;;;;;;;4.91;61.86;101214.63;5072896;28;20401;-70
2022/01/29 11:40:44;;;;;;;11.48;2.92;;;;;;;4.96;62.27;101218.03;5073488;28;20044;-70
2022/01/29 11:43:27;;;;;;;13.35;3.00;;;;;;;4.85;62.82;101217.41;5073497;28;20051;-70
2022/01/29 11:45:58;;;;;;;11.20;2.55;;;;;;;4.94;62.42;101217.22;5073178;28;20055;-70
2022/01/29 11:48:59;;;;;;;10.75;2.92;;;;;;;4.97;61.89;101210.97;5073482;28;20098;-70
2022/01/29 11:51:52;;;;;;;9.05;2.90;;;;;;;4.97;62.25;101206.56;5073086;28;20036;-70
2022/01/29 11:54:29;;;;;;;11.82;3.03;;;;;;;4.95;62.43;101199.56;5073254;28;20033;-70